createdAt,value
2019-03-27T00:02:03.002Z,16.52
2019-03-27T00:04:34.301Z,17.07
2019-03-27T00:07:05.614Z,16.37
2019-03-27T00:09:37.489Z,16.90
2019-03-27T00:12:08.741Z,16.00
2019-03-27T00:14:40.202Z,15.85
2019-03-27T00:17:11.417Z,16.27
2019-03-27T00:19:43.158Z,15.78
2019-03-27T00:22:14.661Z,14.87
2019-03-27T00:24:45.878Z,15.40
2019-03-27T00:27:17.171Z,14.85
2019-03-27T00:29:48.363Z,17.25
2019-03-27T00:32:19.564Z,15.85
2019-03-27T00:34:51.385Z,16.45
2019-03-27T00:37:22.612Z,13.62
2019-03-27T00:39:54.100Z,13.03
2019-03-27T00:42:25.492Z,12.70
2019-03-27T00:44:57.292Z,14.53
2019-03-27T00:47:28.445Z,12.03
2019-03-27T00:49:59.599Z,10.30
2019-03-27T00:52:30.709Z,12.05
2019-03-27T00:55:02.039Z,13.70
2019-03-27T00:57:33.194Z,14.18
2019-03-27T01:00:05.099Z,14.00
2019-03-27T01:02:36.346Z,10.80
2019-03-27T01:05:07.704Z,11.48
2019-03-27T01:07:39.130Z,11.80
2019-03-27T01:10:10.637Z,11.05
2019-03-27T01:12:41.953Z,11.83
2019-03-27T01:15:13.355Z,12.43
2019-03-27T01:17:44.499Z,11.30
2019-03-27T01:20:17.058Z,13.15
2019-03-27T01:22:48.527Z,11.93
2019-03-27T01:25:19.635Z,12.58
2019-03-27T01:27:51.144Z,14.50
2019-03-27T01:30:22.285Z,12.18
2019-03-27T01:32:54.044Z,12.53
2019-03-27T01:35:25.523Z,12.90
2019-03-27T01:37:56.814Z,13.22
2019-03-27T01:40:28.051Z,13.45
2019-03-27T01:42:59.458Z,13.88
2019-03-27T01:45:30.704Z,13.45
2019-03-27T01:48:01.856Z,14.68
2019-03-27T01:50:33.116Z,13.70
2019-03-27T01:53:04.291Z,13.58
2019-03-27T01:55:35.782Z,15.45
2019-03-27T01:58:07.225Z,14.28
2019-03-27T02:00:38.505Z,13.72
2019-03-27T02:03:10.517Z,14.90
2019-03-27T02:05:42.531Z,14.45
2019-03-27T02:08:13.850Z,13.93
2019-03-27T02:10:45.096Z,14.30
2019-03-27T02:13:16.465Z,14.05
2019-03-27T02:15:47.647Z,14.95
2019-03-27T02:18:18.914Z,16.90
2019-03-27T02:20:50.189Z,14.90
2019-03-27T02:23:21.367Z,14.80
2019-03-27T02:25:52.746Z,16.02
2019-03-27T02:28:23.864Z,13.98
2019-03-27T02:30:55.141Z,14.40
2019-03-27T02:33:26.481Z,14.38
2019-03-27T02:35:58.016Z,15.90
2019-03-27T02:38:29.121Z,15.98
2019-03-27T02:41:00.627Z,14.10
2019-03-27T02:43:31.935Z,14.98
2019-03-27T02:46:03.133Z,13.72
2019-03-27T02:48:34.271Z,15.78
2019-03-27T02:51:05.737Z,16.05
2019-03-27T02:53:37.354Z,14.55
2019-03-27T02:56:08.943Z,15.05
2019-03-27T02:58:40.303Z,13.68
2019-03-27T03:01:11.593Z,15.43
2019-03-27T03:03:42.741Z,16.52
2019-03-27T03:06:13.984Z,14.65
2019-03-27T03:08:45.224Z,15.40
2019-03-27T03:11:16.487Z,14.83
2019-03-27T03:13:47.825Z,15.95
2019-03-27T03:16:18.981Z,16.73
2019-03-27T03:18:50.234Z,15.00
2019-03-27T03:21:21.792Z,14.68
2019-03-27T03:23:53.254Z,15.30
2019-03-27T03:26:24.376Z,14.85
2019-03-27T03:28:55.482Z,14.20
2019-03-27T03:31:26.677Z,14.83
2019-03-27T03:33:58.080Z,14.50
2019-03-27T03:36:29.400Z,15.85
2019-03-27T03:39:00.557Z,13.68
2019-03-27T03:41:31.847Z,15.80
2019-03-27T03:44:03.118Z,13.45
2019-03-27T03:46:34.301Z,13.32
2019-03-27T03:49:05.660Z,14.93
2019-03-27T03:51:36.994Z,15.03
2019-03-27T03:54:14.854Z,16.15
2019-03-27T03:56:47.100Z,16.60
2019-03-27T03:59:20.483Z,16.82
2019-03-27T04:01:55.322Z,15.13
2019-03-27T04:04:26.648Z,15.08
2019-03-27T04:06:58.020Z,14.65
2019-03-27T04:09:29.391Z,13.68
2019-03-27T04:12:00.938Z,15.20
2019-03-27T04:14:32.107Z,14.87
2019-03-27T04:17:16.202Z,16.45
2019-03-27T04:19:36.579Z,16.45
2019-03-27T04:22:08.040Z,14.73
2019-03-27T04:24:39.354Z,15.28
2019-03-27T04:27:10.692Z,17.25
2019-03-27T04:29:41.967Z,14.55
2019-03-27T04:32:13.356Z,15.53
2019-03-27T04:34:47.211Z,14.60
2019-03-27T04:37:17.554Z,15.68
2019-03-27T04:39:48.836Z,15.78
2019-03-27T04:42:20.038Z,14.25
2019-03-27T04:44:51.178Z,13.45
2019-03-27T04:47:31.938Z,14.43
2019-03-27T04:49:55.592Z,14.85
2019-03-27T04:52:26.922Z,15.93
2019-03-27T04:54:58.210Z,15.78
2019-03-27T04:57:29.427Z,15.30
2019-03-27T05:00:00.780Z,14.30
2019-03-27T05:02:32.032Z,14.83
2019-03-27T05:05:04.469Z,16.32
2019-03-27T05:07:35.789Z,13.90
2019-03-27T05:10:07.398Z,15.45
2019-03-27T05:12:39.009Z,16.52
2019-03-27T05:15:10.383Z,17.00
2019-03-27T05:17:46.160Z,18.67
2019-03-27T05:20:14.580Z,19.30
2019-03-27T05:22:45.696Z,18.85
2019-03-27T05:25:16.906Z,19.23
2019-03-27T05:27:48.373Z,17.17
2019-03-27T05:30:28.843Z,17.57
2019-03-27T05:33:00.159Z,17.27
2019-03-27T05:35:31.445Z,17.32
2019-03-27T05:38:03.517Z,16.15
2019-03-27T05:40:34.751Z,16.77
2019-03-27T05:43:06.324Z,16.80
2019-03-27T05:45:37.565Z,16.60
2019-03-27T05:48:08.925Z,16.15
2019-03-27T05:50:40.274Z,16.93
2019-03-27T05:53:11.462Z,16.35
2019-03-27T05:55:43.346Z,16.77
2019-03-27T05:58:14.644Z,16.95
2019-03-27T06:00:45.950Z,16.60
2019-03-27T06:03:17.495Z,16.65
2019-03-27T06:05:48.812Z,16.17
2019-03-27T06:08:20.256Z,15.83
2019-03-27T06:10:51.613Z,16.07
2019-03-27T06:13:22.957Z,16.75
2019-03-27T06:15:55.542Z,17.30
2019-03-27T06:18:26.919Z,17.42
2019-03-27T06:20:58.080Z,16.65
2019-03-27T06:23:42.931Z,16.42
2019-03-27T06:26:33.769Z,17.20
2019-03-27T06:29:07.710Z,17.02
2019-03-27T06:31:38.929Z,15.45
2019-03-27T06:34:10.200Z,17.12
2019-03-27T06:36:41.904Z,16.10
2019-03-27T06:39:13.160Z,17.55
2019-03-27T06:41:44.485Z,17.48
2019-03-27T06:44:15.703Z,18.35
2019-03-27T06:46:47.019Z,17.95
2019-03-27T06:49:18.211Z,19.15
2019-03-27T06:51:49.529Z,18.10
2019-03-27T06:54:21.090Z,18.12
2019-03-27T06:56:52.350Z,18.32
2019-03-27T06:59:25.222Z,17.73
2019-03-27T07:01:57.547Z,17.70
2019-03-27T07:04:28.718Z,17.90
2019-03-27T07:06:59.993Z,20.48
2019-03-27T07:09:31.085Z,19.75
2019-03-27T07:12:02.239Z,18.25
2019-03-27T07:14:34.358Z,18.07
2019-03-27T07:17:05.747Z,17.55
2019-03-27T07:19:37.010Z,17.10
2019-03-27T07:22:08.508Z,17.12
2019-03-27T07:24:39.736Z,18.35
2019-03-27T07:27:11.468Z,18.35
2019-03-27T07:29:42.576Z,18.20
2019-03-27T07:32:14.163Z,19.25
2019-03-27T07:34:45.450Z,18.82
2019-03-27T07:37:16.532Z,19.50
2019-03-27T07:39:47.566Z,19.40
2019-03-27T07:42:19.060Z,19.15
2019-03-27T07:44:50.323Z,17.77
2019-03-27T07:47:22.303Z,18.87
2019-03-27T07:49:53.566Z,18.48
2019-03-27T07:52:24.890Z,17.65
2019-03-27T07:54:56.057Z,18.20
2019-03-27T07:57:27.534Z,17.62
2019-03-27T07:59:58.806Z,17.15
2019-03-27T08:02:30.307Z,17.90
2019-03-27T08:05:01.547Z,16.90
2019-03-27T08:07:32.842Z,16.25
2019-03-27T08:10:04.358Z,15.48
2019-03-27T08:12:35.694Z,16.30
2019-03-27T08:15:08.151Z,14.53
2019-03-27T08:17:39.384Z,13.48
2019-03-27T08:20:12.994Z,14.28
2019-03-27T08:22:44.182Z,16.10
2019-03-27T08:25:16.572Z,13.62
2019-03-27T08:27:47.782Z,12.63
2019-03-27T08:30:19.445Z,9.90
2019-03-27T08:32:50.688Z,10.40
2019-03-27T08:35:22.243Z,10.15
2019-03-27T08:37:53.530Z,10.25
2019-03-27T08:40:24.707Z,11.95
2019-03-27T08:42:55.917Z,13.15
2019-03-27T08:45:27.527Z,11.83
2019-03-27T08:47:58.807Z,12.55
2019-03-27T08:50:30.830Z,9.33
2019-03-27T08:53:02.154Z,9.70
2019-03-27T08:55:33.208Z,9.23
2019-03-27T08:58:04.560Z,9.83
2019-03-27T09:00:52.781Z,10.08
2019-03-27T09:03:24.344Z,10.78
2019-03-27T09:05:55.851Z,8.63
2019-03-27T09:08:27.083Z,8.48
2019-03-27T09:10:58.294Z,8.08
2019-03-27T09:13:29.775Z,8.43
2019-03-27T09:16:01.079Z,7.78
2019-03-27T09:18:32.727Z,6.53
2019-03-27T09:21:03.987Z,6.90
2019-03-27T09:23:35.867Z,7.08
2019-03-27T09:26:07.204Z,10.25
2019-03-27T09:28:38.904Z,13.60
2019-03-27T09:31:10.404Z,12.18
2019-03-27T09:33:41.651Z,10.95
2019-03-27T09:36:12.828Z,13.43
2019-03-27T09:38:43.985Z,12.95
2019-03-27T09:41:15.308Z,11.68
2019-03-27T09:43:46.434Z,8.15
2019-03-27T09:46:17.742Z,8.10
2019-03-27T09:48:48.911Z,6.72
2019-03-27T09:51:20.064Z,7.90
2019-03-27T09:53:53.169Z,8.08
2019-03-27T09:56:24.163Z,6.70
2019-03-27T09:58:55.419Z,6.62
2019-03-27T10:01:26.617Z,5.45
2019-03-27T10:03:57.886Z,4.37
2019-03-27T10:06:29.466Z,5.80
2019-03-27T10:09:00.784Z,4.47
2019-03-27T10:11:32.086Z,4.00
2019-03-27T10:14:03.302Z,3.65
2019-03-27T10:16:34.654Z,6.65
2019-03-27T10:19:05.830Z,6.25
2019-03-27T10:21:37.135Z,6.15
2019-03-27T10:24:08.337Z,5.87
2019-03-27T10:26:42.500Z,5.87
2019-03-27T10:29:12.489Z,5.37
2019-03-27T10:31:43.704Z,4.97
2019-03-27T10:34:15.052Z,5.67
2019-03-27T10:36:46.247Z,4.83
2019-03-27T10:39:17.493Z,5.42
2019-03-27T10:41:48.721Z,5.70
2019-03-27T10:44:20.010Z,5.05
2019-03-27T10:46:51.216Z,7.17
2019-03-27T10:49:22.502Z,5.97
2019-03-27T10:51:53.790Z,6.12
2019-03-27T10:54:25.131Z,6.33
2019-03-27T10:56:56.443Z,7.42
2019-03-27T10:59:27.667Z,5.90
2019-03-27T11:01:58.970Z,6.12
2019-03-27T11:04:30.109Z,6.75
2019-03-27T11:07:01.318Z,6.40
2019-03-27T11:09:32.654Z,8.13
2019-03-27T11:12:04.262Z,7.80
2019-03-27T11:14:38.197Z,6.37
2019-03-27T11:17:08.807Z,7.25
2019-03-27T11:19:39.978Z,6.53
2019-03-27T11:22:11.237Z,6.90
2019-03-27T11:24:42.937Z,7.37
2019-03-27T11:27:14.222Z,6.55
2019-03-27T11:29:45.641Z,6.20
2019-03-27T11:32:16.904Z,6.37
2019-03-27T11:34:48.084Z,6.28
2019-03-27T11:37:19.361Z,6.45
2019-03-27T11:39:50.501Z,7.05
2019-03-27T11:42:21.809Z,6.67
2019-03-27T11:44:53.048Z,7.45
2019-03-27T11:47:24.335Z,7.37
2019-03-27T11:49:55.493Z,6.83
2019-03-27T11:52:29.528Z,7.47
2019-03-27T11:54:59.651Z,6.72
2019-03-27T11:57:30.845Z,7.33
2019-03-27T12:00:02.105Z,7.58
2019-03-27T12:02:33.181Z,8.63
2019-03-27T12:05:04.532Z,8.10
2019-03-27T12:07:35.758Z,7.85
2019-03-27T12:10:08.641Z,7.30
2019-03-27T12:12:39.858Z,7.00
2019-03-27T12:15:11.331Z,7.92
2019-03-27T12:17:42.645Z,8.33
2019-03-27T12:20:14.124Z,6.55
2019-03-27T12:22:57.216Z,7.03
2019-03-27T12:25:18.337Z,7.05
2019-03-27T12:27:49.983Z,7.25
2019-03-27T12:30:21.221Z,7.12
2019-03-27T12:32:52.462Z,7.42
2019-03-27T12:35:23.806Z,7.08
2019-03-27T12:37:55.414Z,7.55
2019-03-27T12:40:27.000Z,8.20
2019-03-27T12:42:58.643Z,6.80
2019-03-27T12:45:29.889Z,8.03
2019-03-27T12:48:01.116Z,8.40
2019-03-27T12:50:32.483Z,7.55
2019-03-27T12:53:03.674Z,7.37
2019-03-27T12:55:34.888Z,7.08
2019-03-27T12:58:06.534Z,8.85
2019-03-27T13:00:38.176Z,8.68
2019-03-27T13:03:09.452Z,7.20
2019-03-27T13:05:40.703Z,7.37
2019-03-27T13:08:11.816Z,7.10
2019-03-27T13:10:43.155Z,8.43
2019-03-27T13:13:14.583Z,8.78
2019-03-27T13:15:46.121Z,8.18
2019-03-27T13:18:17.382Z,6.83
2019-03-27T13:20:48.599Z,8.38
2019-03-27T13:23:19.850Z,8.03
2019-03-27T13:25:50.965Z,7.22
2019-03-27T13:28:22.237Z,7.47
2019-03-27T13:30:53.357Z,8.60
2019-03-27T13:33:24.500Z,8.65
2019-03-27T13:35:55.619Z,8.40
2019-03-27T13:38:26.833Z,9.28
2019-03-27T13:40:58.034Z,8.53
2019-03-27T13:43:29.302Z,8.65
2019-03-27T13:46:00.698Z,8.50
2019-03-27T13:48:31.914Z,8.50
2019-03-27T13:51:03.158Z,8.10
2019-03-27T13:53:34.348Z,8.30
2019-03-27T13:56:05.788Z,8.13
2019-03-27T13:58:37.019Z,8.80
2019-03-27T14:01:09.070Z,7.78
2019-03-27T14:03:40.754Z,7.47
2019-03-27T14:06:11.871Z,7.85
2019-03-27T14:08:43.139Z,8.00
2019-03-27T14:11:14.650Z,7.65
2019-03-27T14:13:45.849Z,8.28
2019-03-27T14:16:17.106Z,8.75
2019-03-27T14:18:49.106Z,8.18
2019-03-27T14:21:23.162Z,7.12
2019-03-27T14:23:53.528Z,7.85
2019-03-27T14:26:24.679Z,7.87
2019-03-27T14:28:55.878Z,9.28
2019-03-27T14:31:27.153Z,7.95
2019-03-27T14:33:58.644Z,7.95
2019-03-27T14:36:29.874Z,7.78
2019-03-27T14:39:01.135Z,8.20
2019-03-27T14:41:32.334Z,9.05
2019-03-27T14:44:03.567Z,8.80
2019-03-27T14:46:35.356Z,8.75
2019-03-27T14:49:06.780Z,8.68
2019-03-27T14:51:37.933Z,8.50
2019-03-27T14:54:09.277Z,8.50
2019-03-27T14:56:40.745Z,9.03
2019-03-27T14:59:11.996Z,9.08
2019-03-27T15:01:43.099Z,8.80
2019-03-27T15:04:14.310Z,9.45
2019-03-27T15:06:45.423Z,8.05
2019-03-27T15:09:16.527Z,8.35
2019-03-27T15:11:47.654Z,8.30
2019-03-27T15:14:18.919Z,8.53
2019-03-27T15:16:49.996Z,8.90
2019-03-27T15:19:21.295Z,8.50
2019-03-27T15:21:52.484Z,9.70
2019-03-27T15:24:23.694Z,8.98
2019-03-27T15:26:55.236Z,10.25
2019-03-27T15:29:27.021Z,9.30
2019-03-27T15:31:58.242Z,8.85
2019-03-27T15:34:30.132Z,9.03
2019-03-27T15:37:01.529Z,8.90
2019-03-27T15:39:32.724Z,9.18
2019-03-27T15:42:03.902Z,9.88
2019-03-27T15:44:35.097Z,8.78
2019-03-27T15:47:06.559Z,10.65
2019-03-27T15:49:37.780Z,9.83
2019-03-27T15:52:09.436Z,8.95
2019-03-27T15:54:41.125Z,10.28
2019-03-27T15:57:12.733Z,10.25
2019-03-27T15:59:44.013Z,10.35
2019-03-27T16:02:15.871Z,9.80
2019-03-27T16:04:47.300Z,10.32
2019-03-27T16:07:18.523Z,10.68
2019-03-27T16:09:49.762Z,10.10
2019-03-27T16:12:21.225Z,9.53
2019-03-27T16:14:52.597Z,9.45
2019-03-27T16:17:25.221Z,10.10
2019-03-27T16:19:56.755Z,10.03
2019-03-27T16:22:27.848Z,9.95
2019-03-27T16:24:59.428Z,10.08
2019-03-27T16:27:30.767Z,9.98
2019-03-27T16:30:01.965Z,9.38
2019-03-27T16:32:33.102Z,11.12
2019-03-27T16:35:04.384Z,8.53
2019-03-27T16:37:35.684Z,9.85
2019-03-27T16:40:09.436Z,9.10
2019-03-27T16:45:11.027Z,10.58
2019-03-27T16:47:42.421Z,9.38
2019-03-27T16:50:13.856Z,9.43
2019-03-27T16:52:45.084Z,8.45
2019-03-27T16:55:16.336Z,8.83
2019-03-27T16:57:51.197Z,9.00
2019-03-27T17:00:21.203Z,10.00
2019-03-27T17:02:52.326Z,8.38
2019-03-27T17:05:23.647Z,9.00
2019-03-27T17:07:54.969Z,9.45
2019-03-27T17:10:26.309Z,8.85
2019-03-27T17:12:57.444Z,9.50
2019-03-27T17:15:28.550Z,9.85
2019-03-27T17:18:00.156Z,8.93
2019-03-27T17:20:31.373Z,9.63
2019-03-27T17:23:02.657Z,9.23
2019-03-27T17:25:33.849Z,9.58
2019-03-27T17:28:05.309Z,9.58
2019-03-27T17:30:36.760Z,9.13
2019-03-27T17:33:08.054Z,10.03
2019-03-27T17:35:39.311Z,10.25
2019-03-27T17:38:11.097Z,9.65
2019-03-27T17:40:42.565Z,10.05
2019-03-27T17:43:13.775Z,10.32
2019-03-27T17:45:45.267Z,9.83
2019-03-27T17:48:16.834Z,9.68
2019-03-27T17:50:48.112Z,9.45
2019-03-27T17:53:30.998Z,10.60
2019-03-27T17:55:52.537Z,9.85
2019-03-27T17:58:23.716Z,10.15
2019-03-27T18:00:58.036Z,8.88
2019-03-27T18:03:29.395Z,9.68
2019-03-27T18:06:00.579Z,10.70
2019-03-27T18:08:31.734Z,9.78
2019-03-27T18:11:03.142Z,10.28
2019-03-27T18:13:34.421Z,10.38
2019-03-27T18:16:05.812Z,10.03
2019-03-27T18:18:36.967Z,9.73
2019-03-27T18:21:08.201Z,10.85
2019-03-27T18:23:45.895Z,10.55
2019-03-27T18:26:12.242Z,11.70
2019-03-27T18:28:43.351Z,11.35
2019-03-27T18:31:14.599Z,10.95
2019-03-27T18:33:45.674Z,10.80
2019-03-27T18:36:17.188Z,11.57
2019-03-27T18:38:48.374Z,10.78
2019-03-27T18:41:19.609Z,10.45
2019-03-27T18:43:50.799Z,12.78
2019-03-27T18:46:22.115Z,13.03
2019-03-27T18:48:53.336Z,12.98
2019-03-27T18:51:24.491Z,12.80
2019-03-27T18:53:59.952Z,13.48
2019-03-27T18:56:28.727Z,14.07
2019-03-27T18:58:59.906Z,14.87
2019-03-27T19:01:31.090Z,13.65
2019-03-27T19:04:02.319Z,14.28
2019-03-27T19:06:33.562Z,14.07
2019-03-27T19:09:06.812Z,14.83
2019-03-27T19:11:38.048Z,15.20
2019-03-27T19:14:09.312Z,15.78
2019-03-27T19:16:40.663Z,15.85
2019-03-27T19:19:11.906Z,17.57
2019-03-27T19:21:43.132Z,16.75
2019-03-27T19:24:16.820Z,16.40
2019-03-27T19:26:47.586Z,15.90
2019-03-27T19:29:18.735Z,17.57
2019-03-27T19:31:49.935Z,16.93
2019-03-27T19:34:21.216Z,17.02
2019-03-27T19:36:52.484Z,16.10
2019-03-27T19:39:23.701Z,17.17
2019-03-27T19:41:54.853Z,17.07
2019-03-27T19:44:26.153Z,17.27
2019-03-27T19:46:57.628Z,18.15
2019-03-27T19:49:28.880Z,17.20
2019-03-27T19:52:00.085Z,16.40
2019-03-27T19:54:31.350Z,16.90
2019-03-27T19:57:02.469Z,17.77
2019-03-27T19:59:33.697Z,16.02
2019-03-27T20:02:04.992Z,16.87
2019-03-27T20:04:36.132Z,18.32
2019-03-27T20:07:07.365Z,18.20
2019-03-27T20:09:38.559Z,19.57
2019-03-27T20:12:09.757Z,17.65
2019-03-27T20:14:42.483Z,18.52
2019-03-27T20:17:14.052Z,19.12
2019-03-27T20:19:45.176Z,19.60
2019-03-27T20:22:16.362Z,18.92
2019-03-27T20:24:47.758Z,19.32
2019-03-27T20:27:19.128Z,19.57
2019-03-27T20:29:50.458Z,21.82
2019-03-27T20:32:21.792Z,19.85
2019-03-27T20:34:53.356Z,19.67
2019-03-27T20:37:24.485Z,20.08
2019-03-27T20:39:55.618Z,20.05
2019-03-27T20:42:26.954Z,19.67
2019-03-27T20:44:58.191Z,19.20
2019-03-27T20:47:29.399Z,18.82
2019-03-27T20:50:00.618Z,19.10
2019-03-27T20:52:31.923Z,18.48
2019-03-27T20:55:03.480Z,19.70
2019-03-27T20:57:38.129Z,20.52
2019-03-27T21:00:12.481Z,18.75
2019-03-27T21:02:46.970Z,19.98
2019-03-27T21:05:18.201Z,19.55
2019-03-27T21:07:49.457Z,20.85
2019-03-27T21:10:21.069Z,20.17
2019-03-27T21:12:52.303Z,20.17
2019-03-27T21:15:23.571Z,19.20
2019-03-27T21:17:54.869Z,19.75
2019-03-27T21:20:26.162Z,19.20
2019-03-27T21:22:57.241Z,18.67
2019-03-27T21:25:28.409Z,20.25
2019-03-27T21:28:00.152Z,19.35
2019-03-27T21:30:31.672Z,20.17
2019-03-27T21:33:02.959Z,19.98
2019-03-27T21:35:34.096Z,21.77
2019-03-27T21:38:05.458Z,20.95
2019-03-27T21:40:36.673Z,19.87
2019-03-27T21:43:07.800Z,21.23
2019-03-27T21:45:39.127Z,20.12
2019-03-27T21:48:10.242Z,21.25
2019-03-27T21:50:41.367Z,20.75
2019-03-27T21:53:12.550Z,21.20
2019-03-27T21:55:43.842Z,20.88
2019-03-27T21:58:15.054Z,21.42
2019-03-27T22:00:46.205Z,21.93
2019-03-27T22:03:17.690Z,20.97
2019-03-27T22:05:48.926Z,20.95
2019-03-27T22:08:20.108Z,22.25
2019-03-27T22:10:51.366Z,23.07
2019-03-27T22:13:22.594Z,22.20
2019-03-27T22:15:53.700Z,22.17
2019-03-27T22:18:24.983Z,22.07
2019-03-27T22:20:56.323Z,21.97
2019-03-27T22:23:27.821Z,21.23
2019-03-27T22:25:59.004Z,21.37
2019-03-27T22:28:30.201Z,22.95
2019-03-27T22:31:01.418Z,23.25
2019-03-27T22:33:32.747Z,22.73
2019-03-27T22:36:04.403Z,21.80
2019-03-27T22:38:35.771Z,21.77
2019-03-27T22:41:06.975Z,23.18
2019-03-27T22:43:38.139Z,22.22
2019-03-27T22:46:09.408Z,22.32
2019-03-27T22:48:40.511Z,22.20
2019-03-27T22:51:12.505Z,22.48
2019-03-27T22:53:43.939Z,22.60
2019-03-27T22:56:15.279Z,23.22
2019-03-27T22:58:46.569Z,26.02
2019-03-27T23:01:18.399Z,22.62
2019-03-27T23:03:50.023Z,23.42
2019-03-27T23:06:21.166Z,23.83
2019-03-27T23:08:52.598Z,23.42
2019-03-27T23:11:23.975Z,22.52
2019-03-27T23:13:55.143Z,21.35
2019-03-27T23:16:26.373Z,22.50
2019-03-27T23:18:57.614Z,21.40
2019-03-27T23:21:28.899Z,20.62
2019-03-27T23:24:00.178Z,21.87
2019-03-27T23:26:31.816Z,21.87
2019-03-27T23:29:03.374Z,21.62
2019-03-27T23:31:34.600Z,22.15
2019-03-27T23:34:05.883Z,22.48
2019-03-27T23:36:37.609Z,22.20
2019-03-27T23:39:10.130Z,21.75
2019-03-27T23:41:41.320Z,21.52
2019-03-27T23:44:12.568Z,23.05
2019-03-27T23:46:43.875Z,23.55
2019-03-27T23:49:15.183Z,21.60
2019-03-27T23:51:46.428Z,21.55
2019-03-27T23:54:17.735Z,23.07
2019-03-27T23:56:48.967Z,23.02
2019-03-27T23:59:20.607Z,23.35
